createdAt,value
2023-08-07T00:04:36.522Z,0.00
2023-08-07T00:09:36.449Z,0.00
2023-08-07T00:14:36.386Z,0.00
2023-08-07T00:19:36.306Z,0.00
2023-08-07T00:24:36.241Z,0.00
2023-08-07T00:29:36.206Z,0.00
2023-08-07T00:34:36.113Z,0.00
2023-08-07T00:39:36.052Z,0.00
2023-08-07T00:44:35.981Z,0.00
2023-08-07T00:49:35.911Z,0.00
2023-08-07T00:54:35.843Z,0.00
2023-08-07T00:59:35.800Z,0.00
2023-08-07T01:04:35.713Z,0.00
2023-08-07T01:09:35.654Z,0.00
2023-08-07T01:14:35.580Z,0.00
2023-08-07T01:19:35.525Z,0.00
2023-08-07T01:24:35.447Z,0.00
2023-08-07T01:29:35.387Z,0.00
2023-08-07T01:34:35.314Z,0.00
2023-08-07T01:39:35.260Z,0.00
2023-08-07T01:44:35.166Z,0.00
2023-08-07T01:49:35.108Z,0.00
2023-08-07T01:54:35.028Z,0.00
2023-08-07T01:59:35.012Z,0.00
2023-08-07T02:04:34.910Z,0.00
2023-08-07T02:09:34.840Z,0.00
2023-08-07T02:14:34.780Z,0.00
2023-08-07T02:19:34.716Z,0.00
2023-08-07T02:24:34.639Z,0.00
2023-08-07T02:29:34.581Z,0.00
2023-08-07T02:34:34.520Z,0.00
2023-08-07T02:39:34.451Z,0.00
2023-08-07T02:44:34.390Z,0.00
2023-08-07T02:49:34.326Z,0.00
2023-08-07T02:54:34.239Z,0.00
2023-08-07T02:59:34.177Z,0.00
2023-08-07T03:04:34.122Z,0.00
2023-08-07T03:09:34.053Z,0.00
2023-08-07T03:14:33.981Z,0.00
2023-08-07T03:19:33.920Z,0.00
2023-08-07T03:24:33.967Z,0.00
2023-08-07T03:29:33.783Z,0.00
2023-08-07T03:34:33.709Z,0.00
2023-08-07T03:39:33.651Z,0.00
2023-08-07T03:44:33.574Z,5.62
2023-08-07T03:49:33.501Z,5.62
2023-08-07T03:54:33.443Z,11.25
2023-08-07T03:59:33.369Z,16.87
2023-08-07T04:04:33.321Z,28.12
2023-08-07T04:09:33.262Z,28.12
2023-08-07T04:14:33.174Z,28.12
2023-08-07T04:19:33.114Z,33.75
2023-08-07T04:24:33.042Z,39.37
2023-08-07T04:29:32.976Z,45.00
2023-08-07T04:34:32.900Z,45.00
2023-08-07T04:39:32.854Z,45.00
2023-08-07T04:44:32.784Z,73.12
2023-08-07T04:49:32.706Z,67.50
2023-08-07T04:54:32.629Z,84.37
2023-08-07T04:59:32.567Z,101.25
2023-08-07T05:04:32.495Z,123.75
2023-08-07T05:09:32.418Z,191.25
2023-08-07T05:14:32.370Z,208.12
2023-08-07T05:19:32.293Z,180.00
2023-08-07T05:24:32.239Z,168.75
2023-08-07T05:29:32.156Z,219.37
2023-08-07T05:34:32.118Z,303.75
2023-08-07T05:39:32.038Z,275.62
2023-08-07T05:44:32.040Z,337.50
2023-08-07T05:49:31.930Z,545.62
2023-08-07T05:54:31.841Z,658.12
2023-08-07T05:59:31.757Z,736.87
2023-08-07T06:04:31.698Z,1788.75
2023-08-07T06:09:31.650Z,765.00
2023-08-07T06:14:31.580Z,950.62
2023-08-07T06:19:32.877Z,877.50
2023-08-07T06:24:31.425Z,832.50
2023-08-07T06:29:31.354Z,855.00
2023-08-07T06:34:31.299Z,669.37
2023-08-07T06:39:31.218Z,703.12
2023-08-07T06:44:31.155Z,883.12
2023-08-07T06:49:31.089Z,1158.75
2023-08-07T06:54:31.041Z,956.25
2023-08-07T06:59:30.947Z,928.12
2023-08-07T07:04:30.901Z,680.62
2023-08-07T07:09:30.827Z,680.62
2023-08-07T07:14:30.768Z,455.62
2023-08-07T07:19:30.686Z,410.62
2023-08-07T07:24:30.682Z,365.62
2023-08-07T07:29:30.548Z,247.50
2023-08-07T07:34:30.492Z,450.00
2023-08-07T07:39:30.413Z,1648.12
2023-08-07T07:44:30.373Z,2525.62
2023-08-07T07:49:30.278Z,4792.50
2023-08-07T07:54:30.241Z,646.87
2023-08-07T07:59:30.148Z,337.50
2023-08-07T08:04:30.218Z,309.37
2023-08-07T08:09:30.038Z,466.87
2023-08-07T08:14:31.633Z,348.75
2023-08-07T08:19:38.555Z,967.50
2023-08-07T08:24:30.850Z,742.50
2023-08-07T08:29:29.755Z,416.25
2023-08-07T08:34:29.710Z,990.00
2023-08-07T08:39:29.620Z,630.00
2023-08-07T08:44:29.581Z,630.00
2023-08-07T08:49:29.497Z,1490.62
2023-08-07T08:54:29.446Z,1141.87
2023-08-07T08:59:29.371Z,1063.12
2023-08-07T09:04:29.318Z,1220.62
2023-08-07T09:09:29.274Z,1575.00
2023-08-07T09:14:29.167Z,1051.87
2023-08-07T09:19:29.106Z,815.62
2023-08-07T09:24:29.050Z,838.12
2023-08-07T09:29:28.950Z,613.12
2023-08-07T09:34:28.900Z,765.00
2023-08-07T09:39:30.942Z,1586.25
2023-08-07T09:44:28.758Z,967.50
2023-08-07T09:49:28.684Z,933.75
2023-08-07T09:54:28.630Z,590.62
2023-08-07T09:59:28.545Z,551.25
2023-08-07T10:04:28.487Z,725.62
2023-08-07T10:09:28.398Z,990.00
2023-08-07T10:14:28.350Z,2030.62
2023-08-07T10:19:28.277Z,1456.87
2023-08-07T10:24:28.213Z,956.25
2023-08-07T10:29:28.135Z,1546.87
2023-08-07T10:34:28.082Z,939.37
2023-08-07T10:39:27.994Z,1170.00
2023-08-07T10:44:27.949Z,1237.50
2023-08-07T10:49:27.863Z,1518.75
2023-08-07T10:54:27.802Z,3791.25
2023-08-07T10:59:27.724Z,3015.00
2023-08-07T11:04:27.705Z,2643.75
2023-08-07T11:09:27.600Z,2795.62
2023-08-07T11:14:27.539Z,1687.50
2023-08-07T11:19:27.461Z,1608.75
2023-08-07T11:24:27.403Z,1400.62
2023-08-07T11:29:27.330Z,978.75
2023-08-07T11:34:27.268Z,3268.12
2023-08-07T11:39:27.204Z,2559.37
2023-08-07T11:44:29.259Z,1591.87
2023-08-07T11:49:27.073Z,1282.50
2023-08-07T11:54:27.012Z,849.37
2023-08-07T11:59:26.931Z,1113.75
2023-08-07T12:04:26.911Z,1046.25
2023-08-07T12:09:26.819Z,798.75
2023-08-07T12:14:26.749Z,388.12
2023-08-07T12:19:26.685Z,545.62
2023-08-07T12:24:26.618Z,708.75
2023-08-07T12:29:26.545Z,528.75
2023-08-07T12:40:35.523Z,1023.75
2023-08-07T12:44:27.391Z,1057.50
2023-08-07T12:49:26.282Z,877.50
2023-08-07T12:54:26.219Z,478.12
2023-08-07T12:59:26.147Z,309.37
2023-08-07T13:04:26.093Z,270.00
2023-08-07T13:09:26.006Z,191.25
2023-08-07T13:14:25.949Z,219.37
2023-08-07T13:19:25.873Z,365.62
2023-08-07T13:24:25.818Z,450.00
2023-08-07T13:29:25.733Z,540.00
2023-08-07T13:34:25.673Z,916.87
2023-08-07T13:39:25.634Z,804.37
2023-08-07T13:44:25.563Z,680.62
2023-08-07T13:49:25.480Z,731.25
2023-08-07T13:54:25.412Z,545.62
2023-08-07T13:59:25.348Z,663.75
2023-08-07T14:04:25.277Z,675.00
2023-08-07T14:09:25.207Z,742.50
2023-08-07T14:14:25.152Z,748.12
2023-08-07T14:19:25.073Z,556.87
2023-08-07T14:24:25.027Z,838.12
2023-08-07T14:29:24.939Z,579.37
2023-08-07T14:34:24.887Z,202.50
2023-08-07T14:39:24.941Z,421.87
2023-08-07T14:44:24.741Z,500.62
2023-08-07T14:49:24.676Z,427.50
2023-08-07T14:54:24.615Z,466.87
2023-08-07T14:59:24.556Z,371.25
2023-08-07T15:04:24.485Z,191.25
2023-08-07T15:09:24.416Z,230.62
2023-08-07T15:14:24.367Z,270.00
2023-08-07T15:19:24.277Z,635.62
2023-08-07T15:24:24.224Z,573.75
2023-08-07T15:29:24.153Z,523.12
2023-08-07T15:34:24.086Z,399.37
2023-08-07T15:39:24.036Z,433.12
2023-08-07T15:44:23.964Z,466.87
2023-08-07T15:49:23.892Z,478.12
2023-08-07T15:54:24.016Z,478.12
2023-08-07T15:59:23.767Z,517.50
2023-08-07T16:04:23.791Z,416.25
2023-08-07T16:09:23.630Z,337.50
2023-08-07T16:14:23.560Z,354.37
2023-08-07T16:19:23.763Z,343.12
2023-08-07T16:24:23.445Z,281.25
2023-08-07T16:29:23.357Z,320.62
2023-08-07T16:34:23.320Z,225.00
2023-08-07T16:39:23.241Z,196.87
2023-08-07T16:44:23.177Z,219.37
2023-08-07T16:49:23.105Z,219.37
2023-08-07T16:54:23.047Z,275.62
2023-08-07T16:59:22.993Z,298.12
2023-08-07T17:04:22.910Z,258.75
2023-08-07T17:09:22.838Z,196.87
2023-08-07T17:14:22.783Z,191.25
2023-08-07T17:19:22.760Z,202.50
2023-08-07T17:24:22.645Z,157.50
2023-08-07T17:29:22.575Z,123.75
2023-08-07T17:34:22.513Z,123.75
2023-08-07T17:39:22.428Z,253.12
2023-08-07T17:44:22.392Z,157.50
2023-08-07T17:49:22.304Z,129.37
2023-08-07T17:54:22.258Z,106.87
2023-08-07T17:59:22.163Z,95.62
2023-08-07T18:04:22.129Z,90.00
2023-08-07T18:09:22.030Z,78.75
2023-08-07T18:14:21.995Z,67.50
2023-08-07T18:19:22.513Z,56.25
2023-08-07T18:24:21.851Z,50.62
2023-08-07T18:29:21.766Z,39.37
2023-08-07T18:34:21.714Z,33.75
2023-08-07T18:39:21.637Z,22.50
2023-08-07T18:44:21.582Z,16.87
2023-08-07T18:49:21.506Z,11.25
2023-08-07T18:54:21.449Z,5.62
2023-08-07T18:59:21.367Z,0.00
2023-08-07T19:04:21.322Z,0.00
2023-08-07T19:09:21.234Z,0.00
2023-08-07T19:14:21.174Z,0.00
2023-08-07T19:19:21.093Z,0.00
2023-08-07T19:24:21.077Z,0.00
2023-08-07T19:29:20.970Z,0.00
2023-08-07T19:34:20.915Z,0.00
2023-08-07T19:39:20.828Z,0.00
2023-08-07T19:44:20.774Z,0.00
2023-08-07T19:49:20.696Z,0.00
2023-08-07T19:54:20.662Z,0.00
2023-08-07T19:59:20.562Z,0.00
2023-08-07T20:04:20.508Z,0.00
2023-08-07T20:09:20.427Z,0.00
2023-08-07T20:14:20.364Z,0.00
2023-08-07T20:19:20.520Z,0.00
2023-08-07T20:24:20.233Z,0.00
2023-08-07T20:29:20.194Z,0.00
2023-08-07T20:34:20.096Z,0.00
2023-08-07T20:39:20.052Z,0.00
2023-08-07T20:44:19.971Z,0.00
2023-08-07T20:49:19.926Z,0.00
2023-08-07T20:54:19.870Z,0.00
2023-08-07T20:59:19.773Z,0.00
2023-08-07T21:04:19.694Z,0.00
2023-08-07T21:09:19.646Z,0.00
2023-08-07T21:14:19.582Z,0.00
2023-08-07T21:19:19.518Z,0.00
2023-08-07T21:24:19.446Z,0.00
2023-08-07T21:29:19.391Z,0.00
2023-08-07T21:34:19.296Z,0.00
2023-08-07T21:39:19.253Z,0.00
2023-08-07T21:44:19.176Z,0.00
2023-08-07T21:49:19.120Z,0.00
2023-08-07T21:54:19.025Z,0.00
2023-08-07T21:59:18.985Z,0.00
2023-08-07T22:04:18.917Z,0.00
2023-08-07T22:09:18.859Z,0.00
2023-08-07T22:14:18.755Z,0.00
2023-08-07T22:19:18.706Z,0.00
2023-08-07T22:24:18.645Z,0.00
2023-08-07T22:29:18.584Z,0.00
2023-08-07T22:34:18.490Z,0.00
2023-08-07T22:39:18.441Z,0.00
2023-08-07T22:44:18.352Z,0.00
2023-08-07T22:49:18.307Z,0.00
2023-08-07T22:54:18.230Z,0.00
2023-08-07T22:59:18.195Z,0.00
2023-08-07T23:04:18.096Z,0.00
2023-08-07T23:09:18.022Z,0.00
2023-08-07T23:14:17.951Z,0.00
2023-08-07T23:19:17.901Z,0.00
2023-08-07T23:24:17.810Z,0.00
2023-08-07T23:29:17.752Z,0.00
2023-08-07T23:34:17.689Z,0.00
2023-08-07T23:39:17.627Z,0.00
2023-08-07T23:44:17.558Z,0.00
2023-08-07T23:49:17.502Z,0.00
2023-08-07T23:54:17.436Z,0.00
2023-08-07T23:59:17.390Z,0.00
